Time;durP1;ratioP1;P1;durP2;ratioP2;P2;SDS_P1;SDS_P2;PMS_P1;PMS_P2;Temp;Humidity;BMP_temperature;BMP_pressure;BME280_temperature;BME280_humidity;BME280_pressure;Samples;Min_cycle;Max_cycle;Signal;HPM_P1;HPM_P2
2021/09/03 00:01:37;;;;;;;27.75;15.15;;;;;;;;;;5048027;28;20021;-86
2021/09/03 00:04:02;;;;;;;24.73;14.77;;;;;;;;;;5046627;28;20151;-86
2021/09/03 00:06:28;;;;;;;23.20;14.98;;;;;;;;;;5029268;28;20030;-86
2021/09/03 00:08:54;;;;;;;29.52;15.35;;;;;;;;;;5061118;28;20029;-85
2021/09/03 00:11:19;;;;;;;24.77;15.43;;;;;;;;;;5045674;28;20483;-86
2021/09/03 00:13:44;;;;;;;25.38;15.10;;;;;;;;;;5063445;28;20024;-85
2021/09/03 00:16:10;;;;;;;29.08;16.10;;;;;;;;;;5060287;28;20032;-85
2021/09/03 00:18:35;;;;;;;28.00;16.27;;;;;;;;;;5054918;28;20040;-86
2021/09/03 00:21:01;;;;;;;31.27;16.45;;;;;;;;;;5070806;28;20025;-86
2021/09/03 00:23:26;;;;;;;29.35;17.23;;;;;;;;;;5063910;28;20059;-85
2021/09/03 00:25:53;;;;;;;29.30;16.63;;;;;;;;;;5031193;28;20059;-85
2021/09/03 00:28:18;;;;;;;26.80;16.30;;;;;;;;;;5044735;28;20048;-86
2021/09/03 00:30:43;;;;;;;34.35;16.63;;;;;;;;;;5046873;28;20025;-85
2021/09/03 00:33:09;;;;;;;28.33;16.58;;;;;;;;;;5043636;28;20036;-85
2021/09/03 00:35:34;;;;;;;35.58;16.77;;;;;;;;;;5042895;28;20564;-86
2021/09/03 00:38:00;;;;;;;33.85;17.08;;;;;;;;;;5052921;28;20025;-85
2021/09/03 00:40:25;;;;;;;32.85;17.45;;;;;;;;;;5063104;28;20040;-85
2021/09/03 00:42:50;;;;;;;35.85;17.58;;;;;;;;;;5062040;28;20044;-86
2021/09/03 00:45:16;;;;;;;29.25;17.00;;;;;;;;;;5045334;28;20030;-85
2021/09/03 00:47:43;;;;;;;30.52;16.98;;;;;;;;;;5042851;28;20443;-85
2021/09/03 00:50:09;;;;;;;31.75;18.50;;;;;;;;;;5042644;28;20488;-86
2021/09/03 00:52:34;;;;;;;30.63;17.25;;;;;;;;;;5042621;28;20048;-85
2021/09/03 00:55:00;;;;;;;32.85;17.80;;;;;;;;;;5052545;28;20020;-84
2021/09/03 00:57:26;;;;;;;32.92;17.60;;;;;;;;;;5053536;28;20029;-86
2021/09/03 00:59:54;;;;;;;42.22;17.73;;;;;;;;;;5055911;28;20025;-86
2021/09/03 01:02:23;;;;;;;34.33;18.10;;;;;;;;;;5050481;28;20433;-86
2021/09/03 01:04:49;;;;;;;36.67;17.20;;;;;;;;;;5063226;28;20025;-86
2021/09/03 01:07:14;;;;;;;31.58;17.10;;;;;;;;;;5062019;28;20041;-86
2021/09/03 01:09:40;;;;;;;32.63;18.35;;;;;;;;;;5061787;28;20396;-86
2021/09/03 01:12:06;;;;;;;33.45;19.02;;;;;;;;;;5046496;28;20025;-86
2021/09/03 01:14:31;;;;;;;36.90;19.20;;;;;;;;;;5055461;28;20028;-86
2021/09/03 01:16:56;;;;;;;38.92;19.17;;;;;;;;;;5062125;28;20021;-86
2021/09/03 01:19:22;;;;;;;33.60;19.33;;;;;;;;;;5047726;28;20033;-86
2021/09/03 01:21:49;;;;;;;33.05;19.05;;;;;;;;;;5042999;28;20520;-85
2021/09/03 01:24:15;;;;;;;32.42;19.00;;;;;;;;;;5029904;28;20048;-86
2021/09/03 01:26:40;;;;;;;34.95;18.92;;;;;;;;;;5044786;28;20033;-86
2021/09/03 01:29:05;;;;;;;35.50;18.48;;;;;;;;;;5044121;28;20029;-86
2021/09/03 01:31:31;;;;;;;33.97;19.45;;;;;;;;;;5026407;28;20052;-86
2021/09/03 01:33:57;;;;;;;35.15;19.60;;;;;;;;;;5062618;28;20021;-86
2021/09/03 01:36:30;;;;;;;34.60;18.52;;;;;;;;;;5061400;28;20033;-86
2021/09/03 01:38:56;;;;;;;42.08;19.27;;;;;;;;;;5042932;28;20033;-85
2021/09/03 01:41:22;;;;;;;33.85;20.30;;;;;;;;;;5047768;28;20040;-86
2021/09/03 01:43:48;;;;;;;35.40;19.88;;;;;;;;;;5041959;28;20061;-86
2021/09/03 01:46:13;;;;;;;34.45;19.38;;;;;;;;;;5042420;28;20032;-85
2021/09/03 01:48:38;;;;;;;38.85;21.02;;;;;;;;;;5041952;28;20424;-86
2021/09/03 01:51:04;;;;;;;41.05;20.23;;;;;;;;;;5066130;28;20024;-85
2021/09/03 01:53:29;;;;;;;36.67;21.27;;;;;;;;;;5034026;28;20032;-85
2021/09/03 01:55:55;;;;;;;36.95;19.70;;;;;;;;;;5061610;28;20025;-85
2021/09/03 01:58:20;;;;;;;37.20;18.90;;;;;;;;;;5060947;28;20029;-86
2021/09/03 02:00:45;;;;;;;36.97;20.33;;;;;;;;;;5056191;28;20029;-86
2021/09/03 02:03:11;;;;;;;38.72;20.83;;;;;;;;;;5054877;28;20036;-85
2021/09/03 02:05:36;;;;;;;34.25;18.15;;;;;;;;;;5060817;28;20017;-85
2021/09/03 02:08:02;;;;;;;39.22;20.08;;;;;;;;;;5050788;28;20034;-86
2021/09/03 02:10:27;;;;;;;34.70;18.92;;;;;;;;;;5032625;28;20506;-86
2021/09/03 02:12:53;;;;;;;35.30;20.13;;;;;;;;;;5060796;28;20040;-85
2021/09/03 02:15:19;;;;;;;31.95;19.42;;;;;;;;;;5060679;28;20449;-86
2021/09/03 02:17:44;;;;;;;35.47;19.27;;;;;;;;;;5059276;28;20063;-86
2021/09/03 02:20:10;;;;;;;33.30;19.90;;;;;;;;;;5048530;28;20058;-86
2021/09/03 02:22:35;;;;;;;36.47;20.17;;;;;;;;;;5059999;28;20039;-86
2021/09/03 02:25:00;;;;;;;36.25;20.70;;;;;;;;;;5023384;28;20021;-86
2021/09/03 02:27:26;;;;;;;45.22;23.38;;;;;;;;;;5041343;28;20022;-86
2021/09/03 02:29:52;;;;;;;44.78;23.25;;;;;;;;;;5027102;28;20397;-85
2021/09/03 02:32:20;;;;;;;45.63;23.10;;;;;;;;;;5021734;28;20116;-85
2021/09/03 02:34:46;;;;;;;48.00;23.80;;;;;;;;;;5033702;28;20483;-86
2021/09/03 02:37:12;;;;;;;52.38;25.67;;;;;;;;;;5061861;28;20033;-86
2021/09/03 02:39:37;;;;;;;52.38;24.85;;;;;;;;;;5062459;28;20507;-85
2021/09/03 02:42:03;;;;;;;49.97;24.08;;;;;;;;;;5043915;28;20029;-86
2021/09/03 02:44:28;;;;;;;55.97;24.60;;;;;;;;;;5059957;28;20028;-85
2021/09/03 02:46:53;;;;;;;49.97;25.10;;;;;;;;;;5059422;28;20025;-84
2021/09/03 02:49:19;;;;;;;52.70;25.45;;;;;;;;;;5039766;28;20056;-85
2021/09/03 02:51:44;;;;;;;47.47;25.23;;;;;;;;;;5038906;28;20044;-86
2021/09/03 02:54:09;;;;;;;48.75;26.85;;;;;;;;;;5038344;28;20025;-86
2021/09/03 02:56:35;;;;;;;45.30;24.60;;;;;;;;;;5039124;28;20025;-85
2021/09/03 02:59:00;;;;;;;43.63;25.65;;;;;;;;;;5039914;28;20025;-86
2021/09/03 03:01:26;;;;;;;49.33;25.60;;;;;;;;;;5049635;28;20029;-86
2021/09/03 03:03:52;;;;;;;48.95;27.10;;;;;;;;;;5047948;28;20033;-85
2021/09/03 03:06:17;;;;;;;57.78;27.13;;;;;;;;;;5059592;28;20021;-85
2021/09/03 03:08:43;;;;;;;48.65;27.33;;;;;;;;;;5049801;28;20472;-86
2021/09/03 03:11:08;;;;;;;51.50;26.88;;;;;;;;;;5038305;28;20034;-85
2021/09/03 03:13:33;;;;;;;48.90;26.52;;;;;;;;;;5038066;28;20036;-85
2021/09/03 03:15:59;;;;;;;51.30;26.45;;;;;;;;;;5054677;28;20035;-85
2021/09/03 03:18:24;;;;;;;51.65;27.55;;;;;;;;;;5057903;28;20415;-85
2021/09/03 03:20:50;;;;;;;47.95;26.48;;;;;;;;;;5059115;28;20025;-85
2021/09/03 03:23:16;;;;;;;51.15;27.02;;;;;;;;;;5057902;28;20099;-86
2021/09/03 03:25:42;;;;;;;54.20;29.05;;;;;;;;;;5032928;28;20031;-86
2021/09/03 03:28:08;;;;;;;55.80;29.23;;;;;;;;;;5060092;28;20072;-86
2021/09/03 03:30:34;;;;;;;56.85;27.80;;;;;;;;;;5057955;28;20052;-85
2021/09/03 03:33:00;;;;;;;53.30;29.00;;;;;;;;;;5039511;28;20392;-85
2021/09/03 03:35:25;;;;;;;58.30;30.95;;;;;;;;;;5039591;28;20056;-86
2021/09/03 03:37:51;;;;;;;61.03;30.42;;;;;;;;;;5054815;28;20484;-86
2021/09/03 03:40:17;;;;;;;59.45;30.27;;;;;;;;;;5041463;28;20029;-86
2021/09/03 03:42:43;;;;;;;54.47;28.80;;;;;;;;;;5058650;28;20029;-85
2021/09/03 03:45:09;;;;;;;64.55;30.75;;;;;;;;;;5059869;28;20052;-86
2021/09/03 03:47:35;;;;;;;63.08;32.17;;;;;;;;;;5040961;28;20028;-85
2021/09/03 03:50:00;;;;;;;63.05;30.65;;;;;;;;;;5054452;28;20472;-86
2021/09/03 03:52:26;;;;;;;67.68;30.48;;;;;;;;;;5039830;28;20053;-85
2021/09/03 03:54:51;;;;;;;65.75;31.27;;;;;;;;;;5039350;28;20500;-85
2021/09/03 03:57:17;;;;;;;61.22;30.27;;;;;;;;;;5038646;28;20484;-85
2021/09/03 03:59:43;;;;;;;58.95;30.05;;;;;;;;;;5021172;28;20032;-86
2021/09/03 04:02:09;;;;;;;70.97;31.95;;;;;;;;;;5043234;28;20025;-85
2021/09/03 04:04:34;;;;;;;64.70;31.42;;;;;;;;;;5051266;28;20480;-85
2021/09/03 04:06:59;;;;;;;60.00;30.63;;;;;;;;;;5058788;28;20032;-85
2021/09/03 04:09:25;;;;;;;61.50;30.38;;;;;;;;;;5041044;28;20104;-86
2021/09/03 04:11:51;;;;;;;56.53;29.08;;;;;;;;;;5058896;28;20013;-85
2021/09/03 04:14:18;;;;;;;62.03;29.08;;;;;;;;;;5046157;28;20056;-86
2021/09/03 04:16:43;;;;;;;56.30;30.13;;;;;;;;;;5021841;28;20404;-85
2021/09/03 04:19:08;;;;;;;63.35;29.80;;;;;;;;;;5061322;28;20025;-86
2021/09/03 04:21:34;;;;;;;61.67;29.88;;;;;;;;;;5046708;28;20548;-86
2021/09/03 04:23:59;;;;;;;65.22;31.83;;;;;;;;;;5038898;28;20032;-86
2021/09/03 04:26:24;;;;;;;69.53;32.58;;;;;;;;;;5039766;28;20032;-85
2021/09/03 04:28:50;;;;;;;66.40;31.58;;;;;;;;;;5053998;28;20029;-86
2021/09/03 04:31:15;;;;;;;60.40;31.45;;;;;;;;;;5034982;28;20032;-85
2021/09/03 04:33:41;;;;;;;62.47;32.15;;;;;;;;;;5040968;28;20033;-84
2021/09/03 04:36:06;;;;;;;63.30;31.15;;;;;;;;;;5040447;28;20029;-84
2021/09/03 04:38:31;;;;;;;71.43;33.67;;;;;;;;;;5039238;28;20061;-85
2021/09/03 04:40:58;;;;;;;66.88;33.95;;;;;;;;;;5038519;28;20100;-85
2021/09/03 04:43:23;;;;;;;63.28;32.08;;;;;;;;;;5038357;28;20033;-85
2021/09/03 04:45:49;;;;;;;67.80;32.88;;;;;;;;;;5055820;28;20031;-85
2021/09/03 04:48:14;;;;;;;74.72;33.30;;;;;;;;;;5058067;28;20063;-85
2021/09/03 04:50:40;;;;;;;73.20;35.40;;;;;;;;;;5058907;28;20028;-84
2021/09/03 04:53:06;;;;;;;75.70;33.35;;;;;;;;;;5043345;28;20054;-85
2021/09/03 04:55:32;;;;;;;73.68;32.88;;;;;;;;;;5041583;28;20076;-85
2021/09/03 04:57:57;;;;;;;71.10;33.78;;;;;;;;;;5041692;28;20029;-84
2021/09/03 05:00:22;;;;;;;70.70;32.65;;;;;;;;;;5025701;28;20440;-84
2021/09/03 05:02:48;;;;;;;75.55;35.08;;;;;;;;;;5022635;28;20465;-84
2021/09/03 05:05:14;;;;;;;73.63;34.60;;;;;;;;;;5038894;28;20032;-85
2021/09/03 05:07:39;;;;;;;74.35;33.08;;;;;;;;;;5037927;28;20021;-84
2021/09/03 05:10:06;;;;;;;76.88;34.85;;;;;;;;;;5031502;28;20071;-84
2021/09/03 05:12:32;;;;;;;77.00;34.83;;;;;;;;;;5022264;28;20116;-84
2021/09/03 05:14:58;;;;;;;70.55;34.80;;;;;;;;;;5040474;28;20068;-84
2021/09/03 05:17:23;;;;;;;81.45;37.75;;;;;;;;;;5039989;28;20115;-84
2021/09/03 05:19:49;;;;;;;78.18;36.03;;;;;;;;;;5039619;28;20506;-83
2021/09/03 05:22:14;;;;;;;69.90;34.15;;;;;;;;;;5028232;28;20025;-84
2021/09/03 05:24:39;;;;;;;70.07;34.72;;;;;;;;;;5058150;28;20025;-84
2021/09/03 05:27:05;;;;;;;80.57;37.70;;;;;;;;;;5039779;28;20033;-85
2021/09/03 05:29:31;;;;;;;71.55;35.55;;;;;;;;;;5039763;28;20025;-84
2021/09/03 05:31:56;;;;;;;73.38;36.50;;;;;;;;;;5027531;28;20395;-87
2021/09/03 05:34:21;;;;;;;78.45;37.70;;;;;;;;;;5061095;28;20104;-84
2021/09/03 05:36:47;;;;;;;86.82;38.25;;;;;;;;;;5075195;28;20029;-86
2021/09/03 05:39:12;;;;;;;95.80;43.30;;;;;;;;;;5057483;28;20139;-84
2021/09/03 05:41:37;;;;;;;80.97;37.70;;;;;;;;;;5028384;28;20028;-84
2021/09/03 05:44:03;;;;;;;83.80;37.30;;;;;;;;;;5029201;28;20553;-84
2021/09/03 05:46:28;;;;;;;89.15;37.80;;;;;;;;;;5041719;28;20037;-83
2021/09/03 05:48:53;;;;;;;84.22;38.33;;;;;;;;;;5019797;28;20037;-84
2021/09/03 05:51:20;;;;;;;96.30;40.30;;;;;;;;;;5038045;28;20072;-86
2021/09/03 05:53:46;;;;;;;94.40;38.88;;;;;;;;;;5037598;28;20068;-84
2021/09/03 05:56:11;;;;;;;86.45;38.55;;;;;;;;;;5032076;28;20024;-84
2021/09/03 05:58:37;;;;;;;87.15;39.55;;;;;;;;;;5051298;28;20021;-84
2021/09/03 06:01:03;;;;;;;85.20;38.58;;;;;;;;;;5045555;28;20036;-84
2021/09/03 06:03:28;;;;;;;95.50;41.47;;;;;;;;;;5034001;28;20025;-85
2021/09/03 06:05:53;;;;;;;94.63;43.38;;;;;;;;;;5056570;28;20403;-84
2021/09/03 06:08:19;;;;;;;98.22;42.67;;;;;;;;;;5045221;28;20060;-85
2021/09/03 06:10:44;;;;;;;93.57;42.15;;;;;;;;;;5038401;28;20071;-84
2021/09/03 06:13:10;;;;;;;91.38;40.95;;;;;;;;;;5038684;28;20029;-84
2021/09/03 06:15:35;;;;;;;102.25;42.65;;;;;;;;;;5038399;28;20112;-84
2021/09/03 06:18:00;;;;;;;123.97;48.67;;;;;;;;;;5021392;28;20077;-85
2021/09/03 06:20:26;;;;;;;105.70;42.72;;;;;;;;;;5055954;28;20029;-84
2021/09/03 06:25:36;;;;;;;90.85;40.78;;;;;;;;;;5480721;22;20146;-84
2021/09/03 06:28:01;;;;;;;95.60;41.92;;;;;;;;;;5076239;28;20047;-84
2021/09/03 06:30:27;;;;;;;103.50;42.53;;;;;;;;;;5076806;28;20024;-84
2021/09/03 06:32:52;;;;;;;95.60;40.67;;;;;;;;;;5075081;28;20036;-84
2021/09/03 06:35:18;;;;;;;91.82;40.65;;;;;;;;;;5057001;28;20033;-84
2021/09/03 06:37:44;;;;;;;93.97;40.25;;;;;;;;;;5056067;28;20021;-83
2021/09/03 06:40:09;;;;;;;100.40;40.83;;;;;;;;;;5055470;28;20017;-84
2021/09/03 06:42:35;;;;;;;82.63;35.85;;;;;;;;;;5055807;28;20032;-84
2021/09/03 06:45:00;;;;;;;93.50;38.70;;;;;;;;;;5055663;28;20085;-84
2021/09/03 06:47:26;;;;;;;83.95;37.30;;;;;;;;;;5054854;28;20021;-84
2021/09/03 06:49:52;;;;;;;92.93;37.70;;;;;;;;;;5055903;28;20163;-84
2021/09/03 06:58:40;;;;;;;76.93;34.55;;;;;;;;;;5056209;28;20048;-84
2021/09/03 07:01:31;;;;;;;84.57;36.67;;;;;;;;;;5037488;28;20395;-84
2021/09/03 07:03:56;;;;;;;78.10;35.55;;;;;;;;;;5055590;28;20033;-84
2021/09/03 07:13:16;;;;;;;76.95;32.50;;;;;;;;;;4976957;28;20044;-84
2021/09/03 07:15:41;;;;;;;72.32;32.67;;;;;;;;;;5035953;28;20024;-85
2021/09/03 07:18:07;;;;;;;68.78;33.35;;;;;;;;;;5038491;28;20073;-84
2021/09/03 07:20:32;;;;;;;73.28;31.52;;;;;;;;;;5032771;28;20040;-83
2021/09/03 07:23:00;;;;;;;72.57;32.83;;;;;;;;;;5037406;28;20029;-84
2021/09/03 07:25:26;;;;;;;84.47;32.78;;;;;;;;;;5037085;28;20119;-84
2021/09/03 07:27:51;;;;;;;73.18;31.23;;;;;;;;;;5056580;28;20049;-85
2021/09/03 07:30:16;;;;;;;71.00;31.20;;;;;;;;;;5037940;28;20027;-85
2021/09/03 07:32:43;;;;;;;71.40;31.70;;;;;;;;;;5050392;28;20030;-83
2021/09/03 07:35:09;;;;;;;73.35;33.50;;;;;;;;;;5048259;28;20064;-85
2021/09/03 07:37:35;;;;;;;69.10;31.67;;;;;;;;;;5055805;28;20017;-84
2021/09/03 07:40:00;;;;;;;71.28;32.28;;;;;;;;;;5038029;28;20036;-85
2021/09/03 07:42:25;;;;;;;67.28;31.70;;;;;;;;;;5019481;28;20373;-84
2021/09/03 07:44:51;;;;;;;72.18;32.13;;;;;;;;;;5018404;28;20163;-84
2021/09/03 07:47:19;;;;;;;72.32;30.63;;;;;;;;;;5028426;28;20407;-83
2021/09/03 07:49:44;;;;;;;65.03;30.65;;;;;;;;;;5050577;28;20029;-85
2021/09/03 07:52:10;;;;;;;61.45;30.95;;;;;;;;;;5020670;28;20017;-84
2021/09/03 07:54:35;;;;;;;66.45;30.90;;;;;;;;;;5036039;28;20033;-84
2021/09/03 07:57:00;;;;;;;67.20;30.70;;;;;;;;;;5035946;28;20436;-84
2021/09/03 07:59:26;;;;;;;64.57;29.60;;;;;;;;;;5017454;28;20038;-84
2021/09/03 08:02:00;;;;;;;64.22;28.95;;;;;;;;;;5037831;28;20048;-85
2021/09/03 08:04:25;;;;;;;65.15;29.80;;;;;;;;;;5022926;28;20029;-84
2021/09/03 08:06:51;;;;;;;66.00;28.42;;;;;;;;;;5029453;28;20036;-85
2021/09/03 08:09:16;;;;;;;64.45;28.52;;;;;;;;;;5022845;28;20037;-85
2021/09/03 08:11:42;;;;;;;60.25;27.17;;;;;;;;;;5026043;28;20025;-85
2021/09/03 08:14:07;;;;;;;62.80;27.05;;;;;;;;;;5060125;28;20028;-84
2021/09/03 08:16:32;;;;;;;63.47;27.67;;;;;;;;;;5030731;28;20068;-84
2021/09/03 08:18:58;;;;;;;59.97;26.70;;;;;;;;;;5022490;28;20101;-85
2021/09/03 08:21:24;;;;;;;59.58;26.85;;;;;;;;;;5033078;28;20056;-85
2021/09/03 08:23:49;;;;;;;50.67;23.52;;;;;;;;;;5040713;28;20507;-85
2021/09/03 08:26:15;;;;;;;48.97;22.67;;;;;;;;;;5059749;28;20105;-85
2021/09/03 08:28:40;;;;;;;57.70;22.88;;;;;;;;;;5035610;28;20480;-84
2021/09/03 08:31:06;;;;;;;44.78;20.98;;;;;;;;;;5020976;28;20059;-85
2021/09/03 08:33:31;;;;;;;42.67;21.20;;;;;;;;;;5021058;28;20028;-84
2021/09/03 08:36:00;;;;;;;51.90;19.85;;;;;;;;;;5041355;28;20029;-85
2021/09/03 08:41:49;;;;;;;37.65;18.52;;;;;;;;;;5059218;28;20040;-85
2021/09/03 08:44:43;;;;;;;40.97;18.60;;;;;;;;;;5063971;23;20036;-85
2021/09/03 08:47:12;;;;;;;48.30;18.92;;;;;;;;;;5077040;28;20024;-88
2021/09/03 08:50:15;;;;;;;40.22;18.85;;;;;;;;;;5077085;28;20028;-88
2021/09/03 08:56:40;;;;;;;;;;;;;;;;;;;;;
2021/09/03 08:59:53;;;;;;;36.10;18.52;;;;;;;;;;5057075;28;20101;-87
2021/09/03 09:02:22;;;;;;;40.50;17.90;;;;;;;;;;5039703;28;20032;-87
2021/09/03 09:04:51;;;;;;;39.15;18.35;;;;;;;;;;5026255;28;20029;-87
2021/09/03 09:07:17;;;;;;;39.58;17.25;;;;;;;;;;5039157;28;20022;-87
2021/09/03 09:09:46;;;;;;;37.78;16.80;;;;;;;;;;5021265;28;20618;-87
2021/09/03 09:12:14;;;;;;;39.85;17.83;;;;;;;;;;5005885;28;20533;-86
2021/09/03 09:15:09;;;;;;;42.20;18.10;;;;;;;;;;5001445;28;20385;-86
2021/09/03 09:17:37;;;;;;;34.58;18.10;;;;;;;;;;5001495;28;20409;-87
2021/09/03 09:20:14;;;;;;;35.60;16.98;;;;;;;;;;5022581;28;20021;-87
2021/09/03 09:22:58;;;;;;;39.67;18.30;;;;;;;;;;5024022;28;20112;-87
2021/09/03 09:31:36;;;;;;;37.65;17.52;;;;;;;;;;5425736;22;20052;-86
2021/09/03 09:34:12;;;;;;;39.10;17.48;;;;;;;;;;5076347;28;20082;-87
2021/09/03 09:40:01;;;;;;;33.28;18.80;;;;;;;;;;5068020;28;20034;-87
2021/09/03 09:42:32;;;;;;;36.00;18.70;;;;;;;;;;5076994;28;20013;-88
2021/09/03 09:48:54;;;;;;;40.40;18.45;;;;;;;;;;5000973;28;20122;-83
2021/09/03 09:51:25;;;;;;;41.63;19.73;;;;;;;;;;5056933;28;20021;-85
2021/09/03 09:54:00;;;;;;;45.78;17.98;;;;;;;;;;5056780;28;20036;-85
2021/09/03 09:56:27;;;;;;;45.80;17.33;;;;;;;;;;5059647;28;20107;-85
2021/09/03 09:58:54;;;;;;;38.70;16.35;;;;;;;;;;5068276;28;20092;-85
2021/09/03 10:01:21;;;;;;;43.00;17.45;;;;;;;;;;5056951;28;20071;-84
2021/09/03 10:03:48;;;;;;;49.85;19.50;;;;;;;;;;5076833;28;20028;-85
2021/09/03 10:06:18;;;;;;;34.80;17.60;;;;;;;;;;5075623;28;20380;-84
2021/09/03 10:08:45;;;;;;;39.35;17.98;;;;;;;;;;5077828;28;20025;-84
2021/09/03 10:11:32;;;;;;;50.22;18.27;;;;;;;;;;5064451;28;20052;-83
2021/09/03 10:13:58;;;;;;;39.15;17.95;;;;;;;;;;5058181;28;20058;-85
2021/09/03 10:16:24;;;;;;;37.88;16.88;;;;;;;;;;5055412;28;20492;-85
2021/09/03 10:19:49;;;;;;;35.20;17.17;;;;;;;;;;5055638;28;20116;-84
2021/09/03 10:29:24;;;;;;;36.33;16.25;;;;;;;;;;5133127;22;20056;-85
2021/09/03 10:32:05;;;;;;;30.77;16.43;;;;;;;;;;5050630;28;20029;-85
2021/09/03 10:41:48;;;;;;;36.63;18.88;;;;;;;;;;5035452;28;20075;-85
2021/09/03 10:44:13;;;;;;;36.92;15.60;;;;;;;;;;5069163;28;20021;-85
2021/09/03 10:46:43;;;;;;;35.05;16.48;;;;;;;;;;5058754;28;20086;-85
2021/09/03 10:49:10;;;;;;;39.10;17.50;;;;;;;;;;5058017;28;20058;-86
2021/09/03 10:51:38;;;;;;;33.42;14.70;;;;;;;;;;5062185;28;20029;-87
2021/09/03 10:54:17;;;;;;;32.03;14.73;;;;;;;;;;5062008;28;20028;-87
2021/09/03 10:57:02;;;;;;;32.72;15.13;;;;;;;;;;5059256;28;20043;-86
2021/09/03 10:59:28;;;;;;;29.17;14.02;;;;;;;;;;5058828;28;20041;-85
2021/09/03 11:01:56;;;;;;;35.83;15.25;;;;;;;;;;5059564;28;20021;-85
2021/09/03 11:04:24;;;;;;;31.52;13.98;;;;;;;;;;5060754;28;20029;-86
2021/09/03 11:07:04;;;;;;;34.63;14.10;;;;;;;;;;5061651;28;20025;-86
2021/09/03 11:09:30;;;;;;;32.97;14.43;;;;;;;;;;5067183;28;20025;-86
2021/09/03 11:17:53;;;;;;;42.63;15.15;;;;;;;;;;5907566;22;20463;-86
2021/09/03 11:20:18;;;;;;;30.85;14.43;;;;;;;;;;5043983;28;20025;-86
2021/09/03 11:22:44;;;;;;;33.17;15.02;;;;;;;;;;5042833;28;20029;-85
2021/09/03 11:25:09;;;;;;;30.77;14.30;;;;;;;;;;5028249;28;20044;-85
2021/09/03 11:27:36;;;;;;;33.85;14.32;;;;;;;;;;5024653;28;20025;-85
2021/09/03 11:30:09;;;;;;;28.95;14.77;;;;;;;;;;5003765;28;20026;-85
2021/09/03 11:32:37;;;;;;;29.45;14.23;;;;;;;;;;5022767;28;20026;-85
2021/09/03 11:35:05;;;;;;;31.98;15.18;;;;;;;;;;5026146;28;20029;-86
2021/09/03 11:37:34;;;;;;;35.70;17.45;;;;;;;;;;5007087;28;20408;-84
2021/09/03 11:40:16;;;;;;;32.63;15.63;;;;;;;;;;5025996;28;20025;-85
2021/09/03 11:42:46;;;;;;;26.00;13.93;;;;;;;;;;5024818;28;20026;-83
2021/09/03 11:45:32;;;;;;;33.17;14.93;;;;;;;;;;5041493;28;20025;-84
2021/09/03 11:48:03;;;;;;;28.77;12.55;;;;;;;;;;5040244;28;20037;-84
2021/09/03 11:50:29;;;;;;;32.97;15.18;;;;;;;;;;5021572;28;20043;-85
2021/09/03 11:52:57;;;;;;;37.53;15.48;;;;;;;;;;5030032;28;20025;-83
2021/09/03 11:55:23;;;;;;;30.98;14.23;;;;;;;;;;5020259;28;20392;-84
2021/09/03 11:57:55;;;;;;;31.13;13.32;;;;;;;;;;5004280;28;20049;-83
2021/09/03 12:00:25;;;;;;;34.35;15.73;;;;;;;;;;5007802;28;20022;-84
2021/09/03 12:02:52;;;;;;;32.20;14.20;;;;;;;;;;5002631;28;20033;-84
2021/09/03 12:05:19;;;;;;;24.73;12.05;;;;;;;;;;5019848;28;20041;-84
2021/09/03 12:08:06;;;;;;;27.40;14.13;;;;;;;;;;5022697;28;20363;-83
2021/09/03 12:10:47;;;;;;;33.70;14.27;;;;;;;;;;5024310;28;20082;-84
2021/09/03 12:13:16;;;;;;;27.80;13.15;;;;;;;;;;5003857;28;20018;-84
2021/09/03 12:15:43;;;;;;;31.42;13.60;;;;;;;;;;5003746;28;20033;-84
2021/09/03 12:18:39;;;;;;;28.17;13.75;;;;;;;;;;5015604;28;20021;-84
2021/09/03 12:21:26;;;;;;;33.83;15.57;;;;;;;;;;5002148;28;20026;-84
2021/09/03 12:24:00;;;;;;;35.83;16.08;;;;;;;;;;5001375;28;20034;-84
2021/09/03 12:26:37;;;;;;;31.90;14.43;;;;;;;;;;5003694;28;20034;-84
2021/09/03 12:29:03;;;;;;;31.00;13.50;;;;;;;;;;5031398;28;20036;-85
2021/09/03 12:31:33;;;;;;;26.80;13.38;;;;;;;;;;5023723;28;20021;-84
2021/09/03 12:34:01;;;;;;;26.30;13.32;;;;;;;;;;5003014;28;20030;-84
2021/09/03 12:36:36;;;;;;;32.05;13.63;;;;;;;;;;5002547;28;20018;-85
2021/09/03 12:39:05;;;;;;;27.33;13.30;;;;;;;;;;5020783;28;20040;-85
2021/09/03 12:41:35;;;;;;;22.83;12.60;;;;;;;;;;5019558;28;20053;-84
2021/09/03 12:44:19;;;;;;;28.75;14.00;;;;;;;;;;5002324;28;20033;-83
2021/09/03 12:46:45;;;;;;;58.38;25.75;;;;;;;;;;5019051;28;20072;-85
2021/09/03 12:49:11;;;;;;;26.73;12.38;;;;;;;;;;5020510;28;20030;-85
2021/09/03 12:51:38;;;;;;;25.60;12.07;;;;;;;;;;5021778;28;20352;-84
2021/09/03 12:54:04;;;;;;;22.05;12.55;;;;;;;;;;5018469;28;20289;-84
2021/09/03 12:56:31;;;;;;;17.45;10.05;;;;;;;;;;5018114;28;20029;-85
2021/09/03 12:58:56;;;;;;;19.17;10.10;;;;;;;;;;5027646;28;20144;-84
2021/09/03 13:01:22;;;;;;;26.13;12.07;;;;;;;;;;5018203;28;20497;-85
2021/09/03 13:03:47;;;;;;;29.05;14.40;;;;;;;;;;5000488;28;20030;-85
2021/09/03 13:06:13;;;;;;;29.58;13.00;;;;;;;;;;5000845;28;20109;-84
2021/09/03 13:08:40;;;;;;;27.45;12.38;;;;;;;;;;5001804;28;20026;-84
2021/09/03 13:11:06;;;;;;;29.08;13.27;;;;;;;;;;5003689;28;20069;-85
2021/09/03 13:13:32;;;;;;;24.48;12.63;;;;;;;;;;5000524;28;20037;-85
2021/09/03 13:15:58;;;;;;;27.40;11.75;;;;;;;;;;5018360;28;20021;-84
2021/09/03 13:18:23;;;;;;;29.23;13.15;;;;;;;;;;5019291;28;20109;-84
2021/09/03 13:20:48;;;;;;;21.92;11.57;;;;;;;;;;5020171;28;20044;-85
2021/09/03 13:23:13;;;;;;;29.02;13.43;;;;;;;;;;5041079;28;20055;-84
2021/09/03 13:25:39;;;;;;;25.77;12.43;;;;;;;;;;5040891;28;20013;-84
2021/09/03 13:28:05;;;;;;;29.63;13.07;;;;;;;;;;5021564;28;20089;-84
2021/09/03 13:30:30;;;;;;;23.23;11.65;;;;;;;;;;5020418;28;20112;-85
2021/09/03 13:32:55;;;;;;;26.80;13.75;;;;;;;;;;5007022;28;20113;-86
2021/09/03 13:35:21;;;;;;;28.73;12.73;;;;;;;;;;5018707;28;20030;-85
2021/09/03 13:37:46;;;;;;;26.63;12.13;;;;;;;;;;5013255;28;20082;-83
2021/09/03 13:40:12;;;;;;;25.08;12.00;;;;;;;;;;5020169;28;20081;-84
2021/09/03 13:42:38;;;;;;;29.48;13.25;;;;;;;;;;5018772;28;20033;-84
2021/09/03 13:45:05;;;;;;;23.58;12.93;;;;;;;;;;5020243;28;20032;-85
2021/09/03 13:47:30;;;;;;;25.80;12.18;;;;;;;;;;5041883;28;20025;-85
2021/09/03 13:49:56;;;;;;;30.27;13.32;;;;;;;;;;5020468;28;20026;-83
2021/09/03 13:52:21;;;;;;;25.92;13.45;;;;;;;;;;5039640;28;20033;-85
2021/09/03 13:54:46;;;;;;;31.30;14.07;;;;;;;;;;5018987;28;20080;-85
2021/09/03 13:57:12;;;;;;;29.65;13.90;;;;;;;;;;5038096;28;20025;-85
2021/09/03 13:59:37;;;;;;;28.85;10.88;;;;;;;;;;5018753;28;20065;-85
2021/09/03 14:02:03;;;;;;;29.98;10.38;;;;;;;;;;5036836;28;20123;-85
2021/09/03 14:04:28;;;;;;;29.25;13.93;;;;;;;;;;5013013;28;20116;-85
2021/09/03 14:06:54;;;;;;;22.95;11.50;;;;;;;;;;5021786;28;20036;-84
2021/09/03 14:09:19;;;;;;;31.48;12.82;;;;;;;;;;5019350;28;20101;-85
2021/09/03 14:11:46;;;;;;;23.45;12.63;;;;;;;;;;5026950;28;20371;-85
2021/09/03 14:14:12;;;;;;;24.00;12.70;;;;;;;;;;5024177;28;20060;-87
2021/09/03 14:16:39;;;;;;;23.85;12.05;;;;;;;;;;5020628;28;20037;-88
2021/09/03 14:19:05;;;;;;;25.75;10.85;;;;;;;;;;5016719;28;20033;-87
2021/09/03 14:21:30;;;;;;;26.30;10.77;;;;;;;;;;5028738;28;20029;-86
2021/09/03 14:23:55;;;;;;;30.67;11.50;;;;;;;;;;5034906;28;20029;-87
2021/09/03 14:26:21;;;;;;;21.67;10.60;;;;;;;;;;5037440;28;20473;-86
2021/09/03 14:28:46;;;;;;;21.50;11.23;;;;;;;;;;5037795;28;20032;-87
2021/09/03 14:31:12;;;;;;;25.98;11.73;;;;;;;;;;5037816;28;20392;-86
2021/09/03 14:33:37;;;;;;;28.90;10.55;;;;;;;;;;5037205;28;20496;-86
2021/09/03 14:36:04;;;;;;;20.90;10.93;;;;;;;;;;5017331;28;20117;-85
2021/09/03 14:38:31;;;;;;;26.40;11.73;;;;;;;;;;4999172;28;20022;-84
2021/09/03 14:40:56;;;;;;;37.78;21.80;;;;;;;;;;5016964;28;20026;-83
2021/09/03 14:43:21;;;;;;;24.90;11.77;;;;;;;;;;5017365;28;20433;-85
2021/09/03 14:45:47;;;;;;;26.63;10.23;;;;;;;;;;5018644;28;20021;-87
2021/09/03 14:48:12;;;;;;;27.77;12.55;;;;;;;;;;5007408;28;20034;-85
2021/09/03 14:50:37;;;;;;;27.83;11.80;;;;;;;;;;5038743;28;20155;-84
2021/09/03 14:53:03;;;;;;;27.20;12.27;;;;;;;;;;5019024;28;20049;-85
2021/09/03 14:55:28;;;;;;;24.35;11.88;;;;;;;;;;5018311;28;20025;-86
2021/09/03 14:57:54;;;;;;;27.98;13.18;;;;;;;;;;5035023;28;20025;-86
2021/09/03 15:00:19;;;;;;;29.33;11.18;;;;;;;;;;4998209;28;20048;-86
2021/09/03 15:02:45;;;;;;;20.60;11.88;;;;;;;;;;5019973;28;20009;-87
2021/09/03 15:05:10;;;;;;;24.25;10.32;;;;;;;;;;5035969;28;20044;-86
2021/09/03 15:07:36;;;;;;;24.15;11.63;;;;;;;;;;5035936;28;20036;-86
2021/09/03 15:10:03;;;;;;;22.75;11.90;;;;;;;;;;5017808;28;20033;-87
2021/09/03 15:12:28;;;;;;;26.58;11.80;;;;;;;;;;5018319;28;20025;-87
2021/09/03 15:14:53;;;;;;;25.70;12.13;;;;;;;;;;5018636;28;20033;-87
2021/09/03 15:17:20;;;;;;;24.75;10.75;;;;;;;;;;5036253;28;20109;-86